M I D A S
Marine Information and Data Acquisition System
Tripno 724 of the Zeeleeuw from 2004-05-27 06:15:34 to 2004-05-27 13:42:19
Back to CruiseResearch ActivitiesStationsMapUnderway DataData graphs

EquipmentUnitsComment
TimeDGPSUTC
LatitudeDGPSDM.mWGS84
LongitudeDGPSDM.mWGS84
TemperatureSBE03/SBE38deg celciusITS90
ConductivitySBE21S/mITS90
SalinitySBE21 Practical Salinity Units
ChlorophylAChelsea fluorimeterg/lCalibrated in Aceton
Missing or incorrect values are displayed as -999
Sea surface data collected by the RV Zeeleeuw from 2004-05-27 06:15:34 to 2004-05-27 13:42:19
Time Latitude Longitude Temperature Conductivity Salinity ChlorophylA
2004-05-27 06:16:38 51°13.598 2°56.095 20.47072 4.501128 31.843732 2.994204
2004-05-27 06:17:37 51°13.598 2°56.095 20.474297 4.500601 31.843187 3.061623
2004-05-27 06:18:38 51°13.597 2°56.095 20.476588 4.500179 31.842441 3.027913
2004-05-27 06:19:37 51°13.597 2°56.096 20.480527 4.499757 31.842212 3.027913
2004-05-27 06:20:38 51°13.597 2°56.091 20.477272 4.499441 31.843336 3.061623
2004-05-27 06:21:40 51°13.622 2°55.98 20.477794 4.499019 31.843108 2.994204
2004-05-27 06:22:38 51°13.671 2°55.838 20.488444 4.498491 31.841527 3.061623
2004-05-27 06:23:38 51°13.692 2°55.736 20.497525 4.49828 31.843486 3.027913
2004-05-27 06:24:39 51°13.703 2°55.732 20.499173 4.497859 31.843777 3.095332
2004-05-27 06:25:38 51°13.734 2°55.754 20.501302 4.497437 31.842512 2.994204
2004-05-27 06:26:38 51°13.719 2°55.761 16.826962 4.360383 28.674533 3.263879
2004-05-27 06:27:37 51°13.791 2°55.67 15.516855 3.631711 28.268658 14.185725
2004-05-27 06:28:37 51°13.91 2°55.547 15.44731 3.579979 28.061029 13.275571
2004-05-27 06:29:38 51°14.022 2°55.493 15.32355 2.365251 17.840552 11.994614
2004-05-27 06:30:38 51°14.144 2°55.417 15.288211 3.723924 29.480426 10.54511
2004-05-27 06:31:38 51°14.296 2°55.201 15.23443 3.753645 29.788561 10.679947
2004-05-27 06:32:38 51°14.449 2°54.945 15.164074 3.754488 29.827325 10.477691
2004-05-27 06:33:38 51°14.631 2°54.739 14.8732 3.807821 30.460193 9.297862
2004-05-27 06:34:38 51°14.811 2°54.528 14.821663 3.713497 29.743859 7.477554
2004-05-27 06:35:38 51°14.994 2°54.32 14.804999 3.837757 30.898042 6.735947
2004-05-27 06:36:38 51°15.173 2°54.102 14.755418 3.836492 30.889702 6.5674
2004-05-27 06:37:38 51°15.371 2°53.922 14.718514 3.811935 30.70428 5.792084
2004-05-27 06:38:38 51°15.58 2°53.769 14.662442 3.848615 31.083268 5.960631
2004-05-27 06:39:38 51°15.788 2°53.612 14.656715 3.830381 30.951301 6.466272
2004-05-27 06:40:38 51°15.997 2°53.454 14.642284 3.807509 30.753519 6.60111
2004-05-27 06:41:38 51°16.21 2°53.303 14.698984 3.866218 31.251885 7.106751
2004-05-27 06:42:38 51°16.438 2°53.226 14.686572 3.881713 31.379767 7.275298
2004-05-27 06:43:38 51°16.669 2°53.157 14.646482 3.853675 31.154794 7.14046
2004-05-27 06:44:36 51°16.893 2°53.11 14.599804 3.878973 31.418018 6.837076
2004-05-27 06:45:38 51°17.138 2°53.092 14.56067 3.849038 31.183457 6.60111
2004-05-27 06:46:38 51°17.362 2°53.242 14.528829 3.851779 31.234984 6.938204
2004-05-27 06:47:38 51°17.584 2°53.411 14.515861 3.854626 31.283279 7.241589
2004-05-27 06:48:38 51°17.806 2°53.576 14.523966 3.873072 31.449987 7.71352
2004-05-27 06:49:36 51°18.016 2°53.745 14.510909 3.872755 31.44467 7.814648
2004-05-27 06:50:38 51°18.228 2°53.967 14.497894 3.72952 30.16481 8.050614
2004-05-27 06:51:38 51°18.408 2°54.231 14.491056 3.871175 31.455585 8.252871
2004-05-27 06:52:38 51°18.588 2°54.494 14.490136 3.848091 31.251124 8.657383
2004-05-27 06:53:38 51°18.772 2°54.756 14.4815 3.848302 31.255476 8.994477
2004-05-27 06:54:38 51°18.954 2°55.018 14.474398 3.810779 30.921354 9.769794
2004-05-27 06:55:38 51°19.138 2°55.276 14.456902 3.850621 31.292973 10.241725
2004-05-27 06:56:36 51°19.313 2°55.525 14.43984 3.857683 31.367922 10.679947
2004-05-27 06:57:38 51°19.493 2°55.803 14.428478 3.825852 31.095194 10.983332
2004-05-27 06:58:38 51°19.644 2°56.105 14.414306 3.913445 31.897005 10.949623
2004-05-27 06:59:38 51°19.797 2°56.406 14.402281 3.913235 31.906979 10.983332
2004-05-27 07:00:38 51°19.951 2°56.706 14.392668 3.913551 31.916739 10.983332
2004-05-27 07:01:38 51°20.106 2°57.005 14.384679 3.913235 31.92013 11.151879
2004-05-27 07:02:38 51°20.26 2°57.305 14.374185 3.913235 31.930784 11.253007
2004-05-27 07:03:38 51°20.415 2°57.607 14.366764 3.913657 31.938379 11.185589
2004-05-27 07:04:38 51°20.57 2°57.909 14.361626 3.913551 31.944949 11.185589
2004-05-27 07:05:38 51°20.724 2°58.209 14.36514 3.914289 31.955425 11.253007
2004-05-27 07:06:38 51°20.877 2°58.509 14.348933 3.9145 31.958599 11.219298
2004-05-27 07:07:38 51°21.025 2°58.818 14.323892 3.912498 31.95608 10.747366
2004-05-27 07:08:38 51°21.145 2°59.153 14.313081 3.910917 31.963057 10.612529
2004-05-27 07:09:38 51°21.293 2°59.463 14.306664 3.911444 31.966598 10.5114
2004-05-27 07:10:38 51°21.457 2°59.755 14.293082 3.911233 31.976631 10.410272
2004-05-27 07:11:38 51°21.62 3°0.05 14.289037 3.911444 31.984216 10.342853
2004-05-27 07:12:38 51°21.782 3°0.346 14.270702 3.912182 31.997237 10.174306
2004-05-27 07:13:38 51°21.943 3°0.641 14.247874 3.910917 32.00714 10.241725
2004-05-27 07:14:38 51°22.104 3°0.936 14.233048 3.914818 32.061657 10.342853
2004-05-27 07:15:37 51°22.26 3°1.228 14.225215 3.916399 32.083044 10.646238
2004-05-27 07:16:37 51°22.419 3°1.523 14.2121 3.921565 32.137165 10.949623
2004-05-27 07:17:38 51°22.581 3°1.821 14.1771 3.924622 32.183495 11.11817
2004-05-27 07:18:38 51°22.743 3°2.105 14.14684 3.928944 32.247822 11.11817
2004-05-27 07:19:38 51°22.966 3°2.169 14.128113 3.928418 32.273617 10.612529
2004-05-27 07:20:38 51°23.201 3°2.178 14.118197 3.928734 32.282899 10.949623
2004-05-27 07:21:38 51°23.437 3°2.207 14.082001 3.928629 32.306867 11.320426
2004-05-27 07:22:37 51°23.669 3°2.236 14.062065 3.93137 32.349285 11.522683
2004-05-27 07:23:38 51°23.908 3°2.268 14.033695 3.930527 32.357584 11.69123
2004-05-27 07:24:37 51°24.141 3°2.301 14.071902 3.92747 32.350069 11.758648
2004-05-27 07:25:39 51°24.385 3°2.337 14.085617 3.939171 32.410551 12.500255
2004-05-27 07:26:38 51°24.616 3°2.367 14.038549 3.943071 32.454679 12.904768
2004-05-27 07:27:38 51°24.844 3°2.459 14.011229 3.941069 32.46977 12.871059
2004-05-27 07:28:38 51°25.018 3°2.72 14.006107 3.938328 32.462639 13.444118
2004-05-27 07:29:38 51°25.169 3°3.024 13.948292 3.936853 32.474874 13.140734
2004-05-27 07:30:38 51°25.262 3°3.379 13.853134 3.935272 32.495211 13.174443
2004-05-27 07:31:38 51°25.342 3°3.74 13.60239 3.916933 32.548064 12.331708
2004-05-27 07:32:38 51°25.426 3°4.099 13.596083 3.90945 32.540119 12.533965
2004-05-27 07:33:38 51°25.514 3°4.457 13.608031 3.908185 32.530348 13.073315
2004-05-27 07:34:38 51°25.605 3°4.813 13.602657 3.909028 32.530977 12.129452
2004-05-27 07:35:38 51°25.699 3°5.17 13.584533 3.908923 32.536538 12.062033
2004-05-27 07:36:38 51°25.794 3°5.524 13.546137 3.905866 32.537616 12.432836
2004-05-27 07:37:38 51°25.886 3°5.878 13.606476 3.908185 32.555214 12.095742
2004-05-27 07:38:38 51°25.98 3°6.233 13.678031 3.916407 32.574543 12.264289
2004-05-27 07:39:38 51°26.076 3°6.587 13.753011 3.924944 32.597424 12.533965
2004-05-27 07:40:38 51°26.153 3°6.95 13.813032 3.934325 32.620884 12.837349
2004-05-27 07:41:38 51°26.225 3°7.314 13.851629 3.940123 32.634022 13.275571
2004-05-27 07:42:38 51°26.296 3°7.679 13.894671 3.944023 32.637455 13.477828
2004-05-27 07:43:38 51°26.362 3°7.988 13.925841 3.947817 32.64057 13.781212
2004-05-27 07:44:38 51°26.419 3°8.127 13.954919 3.951085 32.644031 13.039606
2004-05-27 07:45:38 51°26.441 3°8.208 13.950987 3.952666 32.645601 12.196871
2004-05-27 07:46:38 51°26.449 3°8.269 13.952578 3.952877 32.65014 12.871059
2004-05-27 07:47:42 51°26.464 3°8.324 13.969056 3.95372 32.650761 13.073315
2004-05-27 07:48:42 51°26.487 3°8.4 13.967643 3.954353 32.653986 13.444118
2004-05-27 07:49:42 51°26.518 3°8.486 13.959823 3.954563 32.656576 13.107024
2004-05-27 07:50:41 51°26.542 3°8.565 13.964153 3.953825 32.653679 12.702512
2004-05-27 07:51:42 51°26.563 3°8.643 13.961723 3.954142 32.653344 12.668802
2004-05-27 07:52:43 51°26.58 3°8.72 13.963932 3.954247 32.651717 12.466546
2004-05-27 07:53:42 51°26.595 3°8.795 13.966582 3.952877 32.641049 12.635093
2004-05-27 07:54:42 51°26.612 3°8.873 13.962827 3.950663 32.614835 11.927195
2004-05-27 07:55:42 51°26.631 3°8.951 13.94838 3.947606 32.599019 11.960905
2004-05-27 07:56:42 51°26.654 3°9.027 13.966406 3.947711 32.594154 12.129452
2004-05-27 07:57:42 51°26.679 3°9.102 13.954654 3.948554 32.596729 12.533965
2004-05-27 07:58:42 51°26.706 3°9.174 13.91501 3.937381 32.53598 12.432836
2004-05-27 07:59:42 51°26.733 3°9.246 13.872335 3.933902 32.508475 12.196871
2004-05-27 08:00:42 51°26.755 3°9.321 13.787435 3.918934 32.439142 12.432836
2004-05-27 08:01:42 51°26.772 3°9.398 13.787745 3.913032 32.415114 12.533965
2004-05-27 08:02:41 51°26.788 3°9.473 13.750485 3.913031 32.407989 12.668802
2004-05-27 08:03:42 51°26.805 3°9.549 13.719943 3.905864 32.381964 12.533965
2004-05-27 08:04:42 51°26.823 3°9.624 13.696396 3.902702 32.368944 12.129452
2004-05-27 08:05:41 51°26.843 3°9.698 13.701274 3.898802 32.356873 11.960905
2004-05-27 08:06:42 51°26.866 3°9.772 13.72145 3.898275 32.350055 11.927195
2004-05-27 08:07:41 51°26.889 3°9.844 13.70562 3.897642 32.347448 11.994614
2004-05-27 08:08:42 51°26.914 3°9.918 13.704778 3.897326 32.337397 12.297999
2004-05-27 08:09:42 51°26.938 3°9.989 13.703847 3.896377 32.333809 12.399127
2004-05-27 08:10:42 51°26.961 3°10.06 13.693601 3.895745 32.3312 12.567674
2004-05-27 08:11:42 51°26.985 3°10.13 13.700653 3.895323 32.327302 12.668802
2004-05-27 08:12:42 51°27.008 3°10.2 13.696884 3.895429 32.32439 12.567674
2004-05-27 08:13:42 51°27.032 3°10.271 13.689077 3.895007 32.326321 12.399127
2004-05-27 08:14:42 51°27.053 3°10.344 13.673949 3.894059 32.330507 11.927195
2004-05-27 08:15:42 51°27.07 3°10.418 13.658552 3.893426 32.335678 11.151879
2004-05-27 08:16:42 51°27.086 3°10.491 13.657709 3.89311 32.339238 10.848494
2004-05-27 08:17:42 51°27.105 3°10.562 13.644261 3.893216 32.344756 10.275435
2004-05-27 08:18:42 51°27.123 3°10.634 13.629389 3.892794 32.352538 9.904631
2004-05-27 08:19:42 51°27.131 3°10.689 13.620509 3.892478 32.361952 9.803503
2004-05-27 08:20:42 51°27.133 3°10.729 13.614292 3.8929 32.371709 9.769794
2004-05-27 08:21:42 51°27.1 3°10.768 13.592307 3.892584 32.388947 10.342853
2004-05-27 08:22:42 51°27.055 3°10.728 13.6178 3.8929 32.377562 9.365281
2004-05-27 08:23:42 51°27.023 3°10.658 13.633118 3.893005 32.365534 9.365281
2004-05-27 08:24:41 51°27.009 3°10.586 13.640665 3.893111 32.361312 9.533828
2004-05-27 08:25:42 51°26.998 3°10.509 13.646879 3.893005 32.35449 11.185589
2004-05-27 08:26:42 51°26.991 3°10.431 13.657398 3.8929 32.345074 12.129452
2004-05-27 08:27:42 51°26.985 3°10.349 13.652294 3.891845 32.337912 12.601383
2004-05-27 08:28:42 51°26.978 3°10.268 13.65975 3.891845 32.334668 12.972187
2004-05-27 08:29:42 51°26.965 3°10.19 13.667649 3.892056 32.332078 12.702512
2004-05-27 08:30:40 51°26.95 3°10.119 13.666983 3.892583 32.331766 12.297999
2004-05-27 08:31:42 51°26.936 3°10.041 13.657442 3.892689 32.334039 12.095742
2004-05-27 08:32:42 51°26.922 3°9.964 13.663256 3.892162 32.333702 12.23058
2004-05-27 08:33:42 51°26.91 3°9.886 13.667382 3.892689 32.336634 12.500255
2004-05-27 08:34:42 51°26.899 3°9.807 13.665652 3.893426 32.338272 12.399127
2004-05-27 08:35:41 51°26.891 3°9.727 13.676301 3.894586 32.345758 12.533965
2004-05-27 08:36:42 51°26.88 3°9.647 13.689831 3.896589 32.352612 12.871059
2004-05-27 08:37:42 51°26.865 3°9.57 13.723933 3.898802 32.361412 13.275571
2004-05-27 08:38:42 51°26.847 3°9.495 13.739848 3.904494 32.386802 13.814922
2004-05-27 08:39:40 51°26.827 3°9.425 13.749022 3.907129 32.404023 14.286853
2004-05-27 08:40:42 51°26.807 3°9.349 13.779861 3.909975 32.416052 14.421691
2004-05-27 08:41:42 51°26.789 3°9.274 13.846452 3.920094 32.4628 14.556529
2004-05-27 08:42:42 51°26.772 3°9.197 13.912888 3.931689 32.519825 14.657657
2004-05-27 08:43:42 51°26.759 3°9.119 13.958144 3.944865 32.593242 15.02846
2004-05-27 08:44:42 51°26.751 3°9.039 13.988004 3.950979 32.616448 15.06217
2004-05-27 08:45:42 51°26.746 3°8.957 14.005445 3.95393 32.62545 15.129589
2004-05-27 08:46:42 51°26.744 3°8.876 14.018777 3.955195 32.62153 15.02846
2004-05-27 08:47:42 51°26.738 3°8.797 14.025795 3.956039 32.622158 15.095879
2004-05-27 08:48:42 51°26.727 3°8.722 14.028443 3.956038 32.61892 15.129589
2004-05-27 08:49:42 51°26.71 3°8.652 14.027693 3.955933 32.616009 15.163298
2004-05-27 08:50:42 51°26.696 3°8.578 14.029988 3.955617 32.609218 15.230717
2004-05-27 08:51:42 51°26.685 3°8.502 14.032459 3.954773 32.605351 15.230717
2004-05-27 08:52:42 51°26.683 3°8.421 14.065947 3.954879 32.587562 15.129589
2004-05-27 08:53:42 51°26.688 3°8.34 14.082883 3.955616 32.573664 14.961042
2004-05-27 08:54:42 51°26.7 3°8.266 14.089762 3.955405 32.561402 14.826204
2004-05-27 08:55:41 51°26.715 3°8.212 14.088086 3.954983 32.556887 14.826204
2004-05-27 08:56:42 51°26.73 3°8.17 14.075562 3.955089 32.561726 14.826204
2004-05-27 08:57:42 51°26.737 3°8.087 14.070578 3.954878 32.566245 14.792494
2004-05-27 08:58:42 51°26.668 3°7.857 14.087293 3.955089 32.569471 14.859913
2004-05-27 08:59:42 51°26.557 3°7.555 14.063389 3.955511 32.561724 15.264426
2004-05-27 09:00:42 51°26.405 3°7.3 14.051566 3.952875 32.555604 15.197007
2004-05-27 09:01:42 51°26.25 3°7.05 14.079752 3.949713 32.536248 14.961042
2004-05-27 09:02:42 51°26.091 3°6.807 14.04786 3.949397 32.532699 14.826204
2004-05-27 09:03:42 51°25.935 3°6.555 14.096376 3.950134 32.512394 15.129589
2004-05-27 09:04:42 51°25.779 3°6.302 14.077679 3.951399 32.504036 15.264426
2004-05-27 09:05:42 51°25.618 3°6.056 14.142434 3.952032 32.525292 15.534101
2004-05-27 09:06:42 51°25.445 3°5.829 14.140363 3.954666 32.499257 15.365554
2004-05-27 09:07:42 51°25.269 3°5.604 14.087998 3.953086 32.535608 16.410546
2004-05-27 09:08:42 51°25.089 3°5.384 14.109117 3.952032 32.528514 16.376836
2004-05-27 09:09:42 51°24.902 3°5.179 14.150056 3.953191 32.506953 15.770067
2004-05-27 09:10:42 51°24.715 3°4.968 14.142786 3.951504 32.482494 15.298136
2004-05-27 09:11:40 51°24.534 3°4.765 14.181371 3.948868 32.434608 15.365554
2004-05-27 09:12:52 51°24.307 3°4.515 14.188417 3.947708 32.409258 15.466683
2004-05-27 09:13:52 51°24.119 3°4.308 14.191719 3.947497 32.390692 15.904905
2004-05-27 09:14:52 51°23.931 3°4.102 14.218306 3.946443 32.38233 15.972324
2004-05-27 09:15:52 51°23.737 3°3.888 14.198367 3.943913 32.361111 15.02846
2004-05-27 09:16:54 51°23.533 3°3.67 14.192819 3.936218 32.300315 14.48911
2004-05-27 09:17:54 51°23.339 3°3.461 14.193612 3.933372 32.270464 14.387982
2004-05-27 09:18:54 51°23.149 3°3.249 14.261334 3.931684 32.230222 14.725076
2004-05-27 09:19:54 51°22.955 3°3.038 14.2667 3.929787 32.185585 14.961042
2004-05-27 09:20:54 51°22.761 3°2.831 14.306664 3.927362 32.131794 15.331845
2004-05-27 09:21:54 51°22.568 3°2.628 14.330043 3.924726 32.091344 15.129589
2004-05-27 09:23:06 51°22.342 3°2.364 14.339533 3.92209 32.05031 15.095879
2004-05-27 09:24:07 51°22.157 3°2.131 14.356137 3.919771 32.024159 14.961042
2004-05-27 09:25:08 51°21.988 3°1.863 14.369707 3.917768 31.999639 14.691366
2004-05-27 09:26:06 51°21.827 3°1.61 14.390254 3.918927 31.983789 15.129589
2004-05-27 09:27:08 51°21.66 3°1.33 14.394512 3.919138 31.979426 15.399264
2004-05-27 09:28:07 51°21.502 3°1.059 14.35069 3.919349 31.980087 15.803777
2004-05-27 09:29:08 51°21.348 3°0.792 14.365667 3.918295 31.988717 15.197007
2004-05-27 09:30:06 51°21.277 3°0.629 14.356795 3.914606 31.964581 14.725076
2004-05-27 09:31:09 51°21.258 3°0.56 14.369794 3.913657 31.950301 14.623947
2004-05-27 09:32:09 51°21.255 3°0.541 14.352974 3.913341 31.950564 14.4554
2004-05-27 09:33:09 51°21.242 3°0.477 14.315454 3.911233 31.952736 14.219435
2004-05-27 09:34:09 51°21.227 3°0.368 14.34498 3.910284 31.9485 14.286853
2004-05-27 09:35:16 51°21.213 3°0.244 14.359123 3.911865 31.945929 14.421691
2004-05-27 09:36:16 51°21.208 3°0.14 14.361407 3.912919 31.947984 14.522819
2004-05-27 09:37:17 51°21.209 3°0.043 14.367423 3.913657 31.950929 14.590238
2004-05-27 09:38:18 51°21.206 2°59.949 14.364042 3.9145 31.954204 14.758785
2004-05-27 09:39:16 51°21.2 2°59.861 14.351217 3.913341 31.954331 14.758785
2004-05-27 09:40:17 51°21.191 2°59.771 14.337907 3.912181 31.955715 14.792494
2004-05-27 09:41:18 51°21.177 2°59.683 14.335183 3.911654 31.95406 14.927332
2004-05-27 09:42:18 51°21.162 2°59.598 14.334437 3.911338 31.954324 14.994751
2004-05-27 09:43:18 51°21.145 2°59.513 14.333031 3.911338 31.954324 15.02846
2004-05-27 09:44:18 51°21.125 2°59.43 14.334876 3.911549 31.954986 15.06217
2004-05-27 09:45:18 51°21.105 2°59.345 14.336589 3.911865 31.955978 15.129589
2004-05-27 09:46:18 51°21.088 2°59.259 14.345902 3.912076 31.95664 15.095879
2004-05-27 09:47:26 51°21.069 2°59.16 14.351657 3.912076 31.949103 14.994751
2004-05-27 09:48:26 51°21.052 2°59.073 14.357147 3.912287 31.944114 14.961042
2004-05-27 09:49:26 51°21.032 2°58.987 14.355258 3.912287 31.944742 15.02846
2004-05-27 09:50:27 51°21.01 2°58.902 14.347308 3.911865 31.946557 14.826204
2004-05-27 09:51:26 51°20.99 2°58.818 14.339533 3.91176 31.949994 14.725076
2004-05-27 09:52:26 51°20.968 2°58.733 14.33347 3.911233 31.949595 14.590238
2004-05-27 09:53:26 51°20.945 2°58.648 14.329823 3.910706 31.951081 14.556529
2004-05-27 09:54:25 51°20.923 2°58.565 14.325781 3.910811 31.955182 14.556529
2004-05-27 09:55:26 51°20.899 2°58.479 14.319278 3.910073 31.954122 14.4554
2004-05-27 09:56:26 51°20.875 2°58.395 14.312993 3.909968 31.956934 14.48911
2004-05-27 09:57:26 51°20.85 2°58.311 14.309082 3.909441 31.95465 14.4554
2004-05-27 09:58:26 51°20.824 2°58.227 14.317739 3.909863 31.960376 14.556529
2004-05-27 09:59:30 51°20.796 2°58.138 14.328066 3.9106 31.955149 14.758785
2004-05-27 10:00:30 51°20.77 2°58.054 14.333778 3.910916 31.951743 14.859913
2004-05-27 10:01:30 51°20.744 2°57.97 14.33246 3.910706 31.948567 14.725076
2004-05-27 10:02:31 51°20.717 2°57.887 14.327495 3.910179 31.94754 14.623947
2004-05-27 10:03:30 51°20.691 2°57.807 14.344058 3.910495 31.944764 14.994751
2004-05-27 10:04:28 51°20.666 2°57.741 14.350778 3.911865 31.947185 15.230717
2004-05-27 10:05:30 51°20.641 2°57.68 14.35517 3.911865 31.944673 15.331845
2004-05-27 10:06:30 51°20.61 2°57.612 14.351569 3.912497 31.946032 15.399264
2004-05-27 10:07:30 51°20.579 2°57.537 14.336809 3.910811 31.943873 14.994751
2004-05-27 10:08:30 51°20.554 2°57.464 14.354599 3.910811 31.940106 15.197007
2004-05-27 10:09:30 51°20.531 2°57.396 14.357762 3.911549 31.938658 15.365554
2004-05-27 10:10:28 51°20.508 2°57.333 14.360221 3.911549 31.936147 15.331845
2004-05-27 10:11:30 51°20.483 2°57.269 14.361539 3.911338 31.932348 15.264426
2004-05-27 10:12:30 51°20.457 2°57.208 14.361714 3.911127 31.929803 15.264426
2004-05-27 10:13:30 51°20.431 2°57.148 14.359299 3.910811 31.927554 15.129589
2004-05-27 10:14:30 51°20.405 2°57.087 14.354819 3.910178 31.924939 15.06217
2004-05-27 10:15:30 51°20.378 2°57.027 14.354292 3.909651 31.922027 14.961042
2004-05-27 10:16:30 51°20.352 2°56.964 14.356049 3.909651 31.922027 14.927332
2004-05-27 10:17:30 51°20.327 2°56.901 14.3499 3.909335 31.921032 14.826204
2004-05-27 10:18:30 51°20.302 2°56.835 14.352755 3.909124 31.919742 14.691366
2004-05-27 10:19:30 51°20.276 2°56.772 14.349724 3.909124 31.920369 14.725076
2004-05-27 10:20:30 51°20.251 2°56.709 14.349373 3.90923 31.920073 14.725076
2004-05-27 10:21:30 51°20.223 2°56.647 14.353545 3.90923 31.920701 14.657657
2004-05-27 10:22:30 51°20.195 2°56.587 14.353414 3.909124 31.919742 14.758785
2004-05-27 10:23:30 51°20.168 2°56.524 14.352755 3.909124 31.918487 14.691366
2004-05-27 10:24:30 51°20.141 2°56.461 14.357762 3.909335 31.917896 14.725076
2004-05-27 10:25:30 51°20.114 2°56.399 14.360089 3.909757 31.919222 14.758785
2004-05-27 10:26:30 51°20.085 2°56.336 14.374625 3.910284 31.918371 14.961042
2004-05-27 10:27:30 51°20.057 2°56.274 14.399077 3.911127 31.913501 15.264426
2004-05-27 10:28:31 51°20.028 2°56.21 14.423871 3.913235 31.906979 16.006033
2004-05-27 10:29:30 51°19.999 2°56.149 14.438086 3.914605 31.904405 16.17458
2004-05-27 10:30:30 51°19.971 2°56.086 14.449797 3.915026 31.897602 16.208289
2004-05-27 10:31:30 51°19.943 2°56.022 14.456332 3.914815 31.889438 16.107161
2004-05-27 10:32:31 51°19.914 2°55.957 14.457209 3.91471 31.885358 15.837486
2004-05-27 10:33:30 51°19.884 2°55.896 14.461156 3.914499 31.882196 15.736358
2004-05-27 10:34:30 51°19.855 2°55.833 14.464313 3.914604 31.87878 15.668939
2004-05-27 10:35:31 51°19.824 2°55.771 14.470934 3.914815 31.87757 15.63523
2004-05-27 10:36:30 51°19.795 2°55.712 14.471986 3.91471 31.873493 15.60152
2004-05-27 10:37:30 51°19.763 2°55.646 14.476239 3.91471 31.87162 15.500392
2004-05-27 10:38:31 51°19.685 2°55.514 14.480492 3.91492 31.869788 15.432973
2004-05-27 10:39:31 51°19.584 2°55.232 14.509288 3.91608 31.859719 15.668939
2004-05-27 10:40:30 51°19.53 2°54.887 14.518008 3.915236 31.843977 15.399264
2004-05-27 10:41:30 51°19.47 2°54.512 14.519497 3.914814 31.835175 14.826204
2004-05-27 10:42:30 51°19.392 2°54.145 14.523572 3.914287 31.827288 14.286853
2004-05-27 10:43:30 51°19.295 2°53.788 14.528785 3.91513 31.825592 13.91605
2004-05-27 10:44:30 51°19.2 2°53.429 14.527296 3.914709 31.831108 13.3767
2004-05-27 10:45:30 51°19.104 2°53.07 14.508762 3.91492 31.841734 13.073315
2004-05-27 10:46:30 51°19.008 2°52.711 14.533035 3.918926 31.873666 12.80364
2004-05-27 10:47:30 51°18.914 2°52.35 14.558831 3.928096 31.932421 12.23058
2004-05-27 10:48:31 51°18.817 2°51.984 14.563691 3.931048 31.951664 11.927195
2004-05-27 10:49:30 51°18.723 2°51.632 14.570084 3.932945 31.965101 11.859777
2004-05-27 10:50:30 51°18.626 2°51.276 14.563341 3.935475 31.988637 12.196871
2004-05-27 10:51:30 51°18.551 2°50.929 14.579627 3.93674 31.999469 12.500255
2004-05-27 10:52:30 51°18.616 2°50.775 14.53505 3.934843 31.979161 12.837349
2004-05-27 10:53:30 51°18.673 2°50.8 14.515291 3.923037 31.902808 13.107024
2004-05-27 10:54:30 51°18.705 2°50.843 14.512224 3.921034 31.896512 13.039606
2004-05-27 10:55:30 51°18.728 2°50.889 14.506571 3.921034 31.898384 12.938477
2004-05-27 10:56:30 51°18.755 2°50.948 14.509551 3.919347 31.88497 12.837349
2004-05-27 10:57:31 51°18.785 2°51.012 14.509945 3.918399 31.874501 12.736221
2004-05-27 10:58:30 51°18.816 2°51.073 14.508675 3.918715 31.877367 12.601383
2004-05-27 10:59:30 51°18.849 2°51.133 14.500918 3.916712 31.864827 12.601383
2004-05-27 11:00:31 51°18.882 2°51.194 14.503635 3.916185 31.863168 12.533965
2004-05-27 11:01:30 51°18.913 2°51.251 14.501794 3.915974 31.86001 12.365418
2004-05-27 11:02:30 51°18.946 2°51.31 14.504511 3.915869 31.857808 12.23058
2004-05-27 11:03:30 51°18.978 2°51.369 14.506045 3.915552 31.853072 12.331708
2004-05-27 11:04:30 51°19.011 2°51.431 14.51275 3.915658 31.851535 12.129452
2004-05-27 11:05:29 51°19.041 2°51.491 14.519103 3.916396 31.849499 12.129452
2004-05-27 11:06:30 51°19.073 2°51.55 14.526902 3.916606 31.847672 12.163161
2004-05-27 11:07:30 51°19.105 2°51.609 14.535838 3.917555 31.850661 12.23058
2004-05-27 11:08:30 51°19.137 2°51.669 14.547664 3.919031 31.855932 12.196871
2004-05-27 11:09:30 51°19.17 2°51.729 14.564873 3.92388 31.887381 11.994614
2004-05-27 11:10:30 51°19.203 2°51.789 14.573542 3.92778 31.912098 11.69123
2004-05-27 11:11:30 51°19.236 2°51.846 14.580678 3.929993 31.924033 11.488973
2004-05-27 11:12:31 51°19.267 2°51.906 14.567895 3.927042 31.901681 11.421554
2004-05-27 11:13:30 51°19.297 2°51.965 14.563998 3.923563 31.875178 11.65752
2004-05-27 11:14:30 51°19.327 2°52.026 14.557473 3.921455 31.859209 11.792358
2004-05-27 11:15:30 51°19.357 2°52.083 14.560758 3.920612 31.854687 11.960905
2004-05-27 11:16:30 51°19.39 2°52.14 14.554977 3.92019 31.852737 12.062033
2004-05-27 11:17:30 51°19.422 2°52.2 14.551474 3.919241 31.849127 12.196871
2004-05-27 11:18:30 51°19.451 2°52.262 14.556204 3.919558 31.848256 12.095742
2004-05-27 11:19:31 51°19.481 2°52.325 14.566362 3.919979 31.849584 12.095742
2004-05-27 11:20:29 51°19.511 2°52.383 14.589914 3.92156 31.847101 12.163161
2004-05-27 11:21:30 51°19.543 2°52.443 14.601249 3.922509 31.843253 12.399127
2004-05-27 11:22:30 51°19.575 2°52.504 14.606675 3.923141 31.841517 12.567674
2004-05-27 11:23:30 51°19.605 2°52.566 14.607025 3.923246 31.837502 12.76993
2004-05-27 11:24:30 51°19.628 2°52.631 14.607331 3.923457 31.841271 12.80364
2004-05-27 11:25:30 51°19.629 2°52.665 14.592583 3.92293 31.843959 13.241862
2004-05-27 11:26:31 51°19.616 2°52.679 14.599848 3.922825 31.846734 13.511537
2004-05-27 11:27:31 51°19.556 2°52.746 14.592189 3.923668 31.846904 13.680084
2004-05-27 11:28:30 51°19.481 2°52.728 14.6093 3.923457 31.845619 13.3767
2004-05-27 11:29:31 51°19.42 2°52.679 14.615557 3.924301 31.845169 13.477828
2004-05-27 11:30:30 51°19.369 2°52.618 14.619188 3.9243 31.840822 13.949759
2004-05-27 11:31:30 51°19.317 2°52.555 14.636817 3.925565 31.841702 13.91605
2004-05-27 11:32:29 51°19.266 2°52.495 14.630912 3.925987 31.842409 13.612665
2004-05-27 11:33:30 51°19.213 2°52.434 14.648669 3.926198 31.841832 13.410409
2004-05-27 11:34:30 51°19.16 2°52.375 14.651861 3.927779 31.841227 13.309281
2004-05-27 11:35:30 51°19.107 2°52.315 14.656715 3.927884 31.840939 13.275571
2004-05-27 11:36:30 51°19.054 2°52.256 14.655797 3.927884 31.840939 13.241862
2004-05-27 11:37:30 51°19 2°52.198 14.650024 3.928306 31.845367 12.904768
2004-05-27 11:38:30 51°18.947 2°52.139 14.646089 3.927779 31.84805 12.80364
2004-05-27 11:39:30 51°18.894 2°52.078 14.645739 3.92799 31.849334 12.668802
2004-05-27 11:40:30 51°18.842 2°52.016 14.653085 3.927568 31.846146 12.904768
2004-05-27 11:41:30 51°18.79 2°51.953 14.661481 3.928727 31.848555 12.80364
2004-05-27 11:42:30 51°18.738 2°51.889 14.659207 3.929149 31.848021 12.80364
2004-05-27 11:43:31 51°18.687 2°51.823 14.658158 3.929571 31.852449 12.702512
2004-05-27 11:44:30 51°18.636 2°51.76 14.660825 3.929781 31.856834 12.736221
2004-05-27 11:45:30 51°18.585 2°51.696 14.668082 3.932311 31.871616 12.365418
2004-05-27 11:46:30 51°18.534 2°51.631 14.667645 3.933576 31.883039 12.399127
2004-05-27 11:47:30 51°18.482 2°51.567 14.689326 3.934947 31.889206 12.432836
2004-05-27 11:48:30 51°18.43 2°51.504 14.718951 3.939795 31.909391 12.331708
2004-05-27 11:49:30 51°18.379 2°51.443 14.737165 3.943696 31.925344 12.095742
2004-05-27 11:50:30 51°18.332 2°51.384 14.743672 3.946331 31.938564 11.960905
2004-05-27 11:51:30 51°18.287 2°51.327 14.748038 3.947069 31.940875 11.994614
2004-05-27 11:52:30 51°18.242 2°51.271 14.758037 3.947385 31.939384 12.062033
2004-05-27 11:53:30 51°18.198 2°51.215 14.766812 3.948334 31.940494 11.927195
2004-05-27 11:54:30 51°18.153 2°51.16 14.780256 3.949388 31.940693 11.792358
2004-05-27 11:55:30 51°18.107 2°51.104 14.788287 3.949915 31.938004 11.758648
2004-05-27 11:56:30 51°18.062 2°51.049 14.787763 3.950336 31.938705 11.758648
2004-05-27 11:57:30 51°18.018 2°50.993 14.796665 3.950442 31.937176 11.893486
2004-05-27 11:58:30 51°17.968 2°50.937 14.810059 3.951285 31.93486 11.724939
2004-05-27 11:59:30 51°17.916 2°50.886 14.814553 3.951706 31.931845 11.455264
2004-05-27 12:00:30 51°17.858 2°50.864 14.816908 3.952128 31.928832 11.320426
2004-05-27 12:01:31 51°17.786 2°50.976 14.800068 3.950441 31.926646 11.893486
2004-05-27 12:02:31 51°17.659 2°51.237 14.722358 3.946225 31.915912 11.826067
2004-05-27 12:03:30 51°17.574 2°51.542 14.730089 3.939057 31.887228 12.432836
2004-05-27 12:04:30 51°17.485 2°51.863 14.670836 3.932311 31.850532 13.241862
2004-05-27 12:05:31 51°17.35 2°52.16 14.620851 3.925143 31.831067 13.882341
2004-05-27 12:06:30 51°17.214 2°52.442 14.614113 3.921454 31.81882 14.050888
2004-05-27 12:07:29 51°17.074 2°52.715 14.624613 3.920927 31.810954 14.084597
2004-05-27 12:08:31 51°16.93 2°53.004 14.67818 3.922824 31.80268 13.848631
2004-05-27 12:09:30 51°16.785 2°53.271 14.690943 3.926513 31.803169 13.91605
2004-05-27 12:10:30 51°16.645 2°53.564 14.738475 3.928305 31.803251 13.3767
2004-05-27 12:11:30 51°16.514 2°53.844 14.864396 3.931783 31.791357 12.80364
2004-05-27 12:12:31 51°16.487 2°53.999 14.943641 3.940425 31.737411 12.500255
2004-05-27 12:13:30 51°16.471 2°53.997 14.931405 3.938738 31.711861 12.163161
2004-05-27 12:14:30 51°16.464 2°54.02 14.896558 3.934733 31.710234 12.533965
2004-05-27 12:15:30 51°16.47 2°54.095 14.947603 3.936208 31.699578 12.432836
2004-05-27 12:16:30 51°16.458 2°54.162 14.978116 3.939687 31.701391 12.129452
2004-05-27 12:17:31 51°16.442 2°54.224 14.98373 3.941268 31.700882 12.095742
2004-05-27 12:18:31 51°16.428 2°54.285 14.959183 3.940741 31.70044 12.062033
2004-05-27 12:19:30 51°16.419 2°54.351 14.984905 3.940108 31.699664 12.129452
2004-05-27 12:20:30 51°16.414 2°54.425 14.976941 3.941268 31.695991 12.095742
2004-05-27 12:21:30 51°16.408 2°54.5 14.959923 3.940214 31.698774 12.062033
2004-05-27 12:22:30 51°16.406 2°54.576 14.931841 3.938738 31.707574 12.163161
2004-05-27 12:23:30 51°16.407 2°54.651 14.964798 3.938949 31.706403 12.196871
2004-05-27 12:24:30 51°16.408 2°54.727 14.991605 3.941373 31.704273 12.163161
2004-05-27 12:25:31 51°16.407 2°54.804 15.001525 3.942743 31.698821 12.163161
2004-05-27 12:26:29 51°16.406 2°54.878 14.999176 3.942216 31.689212 12.095742
2004-05-27 12:27:32 51°16.406 2°54.958 15.010747 3.941162 31.680382 12.062033
2004-05-27 12:28:33 51°16.404 2°55.036 15.001742 3.940635 31.675662 12.028324
2004-05-27 12:29:34 51°16.404 2°55.114 14.986167 3.939159 31.668551 12.129452
2004-05-27 12:30:34 51°16.404 2°55.191 14.992389 3.937156 31.65977 12.163161
2004-05-27 12:31:33 51°16.404 2°55.268 14.98956 3.93684 31.655716 12.23058
2004-05-27 12:32:34 51°16.405 2°55.347 14.997653 3.936313 31.644891 12.331708
2004-05-27 12:33:34 51°16.407 2°55.422 15.024055 3.936313 31.633912 12.264289
2004-05-27 12:34:34 51°16.41 2°55.499 15.028665 3.937156 31.623787 12.264289
2004-05-27 12:35:34 51°16.415 2°55.576 15.029665 3.936418 31.617794 12.196871
2004-05-27 12:36:34 51°16.419 2°55.654 15.006266 3.934626 31.609675 12.163161
2004-05-27 12:37:34 51°16.424 2°55.731 15.020533 3.93294 31.603106 12.23058
2004-05-27 12:38:33 51°16.427 2°55.807 15.015966 3.93315 31.59525 12.163161
2004-05-27 12:39:33 51°16.432 2°55.884 15.013487 3.931464 31.584417 12.129452
2004-05-27 12:40:33 51°16.436 2°55.961 14.995347 3.929672 31.576899 12.129452
2004-05-27 12:41:34 51°16.441 2°56.038 14.986906 3.927669 31.568099 12.095742
2004-05-27 12:42:34 51°16.446 2°56.113 14.994042 3.926615 31.562314 12.062033
2004-05-27 12:43:34 51°16.45 2°56.191 14.979248 3.926509 31.55711 12.129452
2004-05-27 12:44:34 51°16.454 2°56.268 14.96371 3.924507 31.553174 12.095742
2004-05-27 12:45:34 51°16.428 2°56.331 14.931493 3.922082 31.548503 12.399127
2004-05-27 12:46:34 51°16.39 2°56.356 14.924786 3.919131 31.545809 13.039606
2004-05-27 12:47:34 51°16.353 2°56.364 14.932233 3.919237 31.542489 13.140734
2004-05-27 12:48:34 51°16.318 2°56.361 14.938721 3.919342 31.540387 13.005896
2004-05-27 12:49:34 51°16.263 2°56.359 14.939592 3.919974 31.542401 13.208153
2004-05-27 12:50:34 51°16.192 2°56.299 14.910978 3.917866 31.537515 13.983469
2004-05-27 12:51:34 51°16.138 2°56.231 14.908103 3.915864 31.532963 14.556529
2004-05-27 12:52:33 51°16.092 2°56.171 14.894467 3.915442 31.53101 14.522819
2004-05-27 12:53:34 51°16.047 2°56.109 14.886405 3.913756 31.527464 14.691366
2004-05-27 12:54:34 51°16.006 2°56.047 14.888541 3.913334 31.52612 14.623947
2004-05-27 12:55:34 51°15.969 2°55.98 14.901394 3.914072 31.524204 14.556529
2004-05-27 12:56:34 51°15.935 2°55.899 14.915596 3.915231 31.521197 14.522819
2004-05-27 12:57:34 51°15.901 2°55.807 14.909062 3.91502 31.518698 14.657657
2004-05-27 12:58:34 51°15.866 2°55.71 14.904444 3.914072 31.515673 14.725076
2004-05-27 12:59:34 51°15.829 2°55.612 14.909976 3.914282 31.516954 14.691366
2004-05-27 13:00:34 51°15.79 2°55.515 14.913548 3.914493 31.514581 14.590238
2004-05-27 13:01:34 51°15.75 2°55.418 14.931188 3.915442 31.513343 14.387982
2004-05-27 13:02:34 51°15.711 2°55.322 14.937023 3.915863 31.510427 14.421691
2004-05-27 13:03:34 51°15.675 2°55.221 14.93981 3.91639 31.508456 14.354272
2004-05-27 13:04:34 51°15.647 2°55.117 14.950781 3.917023 31.504998 14.320563
2004-05-27 13:05:33 51°15.621 2°55.016 14.942988 3.917128 31.509592 14.522819
2004-05-27 13:06:33 51°15.594 2°54.913 14.929141 3.915969 31.50772 14.725076
2004-05-27 13:07:32 51°15.566 2°54.813 14.919777 3.915442 31.511517 14.590238
2004-05-27 13:08:34 51°15.536 2°54.707 14.916815 3.914915 31.512271 14.286853
2004-05-27 13:09:34 51°15.507 2°54.604 14.921171 3.915336 31.513616 13.882341
2004-05-27 13:10:34 51°15.477 2°54.503 14.915683 3.91502 31.514434 13.747503
2004-05-27 13:11:32 51°15.45 2°54.403 14.895164 3.914915 31.516534 13.882341
2004-05-27 13:12:34 51°15.432 2°54.296 14.904052 3.91365 31.520422 14.017178
2004-05-27 13:13:33 51°15.425 2°54.195 14.909279 3.914809 31.519853 13.545247
2004-05-27 13:14:34 51°15.426 2°54.095 14.912416 3.915547 31.522814 13.309281
2004-05-27 13:15:34 51°15.435 2°54.005 14.911545 3.916496 31.529493 13.241862
2004-05-27 13:16:34 51°15.449 2°53.921 14.888889 3.916918 31.546077 13.241862
2004-05-27 13:17:34 51°15.475 2°53.853 14.914899 3.917761 31.553032 13.107024
2004-05-27 13:18:34 51°15.516 2°53.8 14.955135 3.920923 31.552123 12.972187
2004-05-27 13:19:34 51°15.553 2°53.766 14.980727 3.923558 31.553808 13.107024
2004-05-27 13:20:34 51°15.573 2°53.74 15.006049 3.926826 31.56055 13.174443
2004-05-27 13:21:33 51°15.583 2°53.715 15.009877 3.928934 31.56786 13.107024
2004-05-27 13:22:34 51°15.62 2°53.761 15.021881 3.928828 31.571176 12.938477
2004-05-27 13:23:34 51°15.51 2°53.909 15.049274 3.933993 31.575423 12.938477
2004-05-27 13:24:39 51°15.274 2°54.022 14.925831 3.92925 31.570082 13.107024
2004-05-27 13:25:38 51°15.055 2°54.128 14.917382 3.918288 31.545562 13.477828
2004-05-27 13:26:38 51°14.851 2°54.283 14.919037 3.913228 31.50263 13.275571
2004-05-27 13:27:38 51°14.667 2°54.486 15.023882 3.914809 31.469375 13.511537
2004-05-27 13:28:39 51°14.51 2°54.733 15.240022 3.91913 31.462554 48.029965
2004-05-27 13:29:38 51°14.385 2°54.999 15.36242 3.918181 31.454677 46.546751
2004-05-27 13:30:39 51°14.28 2°55.252 15.436461 3.918603 31.457841 43.276939
2004-05-27 13:31:38 51°14.18 2°55.389 15.510638 3.918919 31.458851 40.243093
2004-05-27 13:32:37 51°14.081 2°55.486 15.619661 3.919235 31.456226 38.625042
2004-05-27 13:33:39 51°13.967 2°55.561 15.703025 3.919762 31.453671 38.018272
2004-05-27 13:34:38 51°13.825 2°55.649 15.838001 3.920605 31.452732 37.883435
2004-05-27 13:35:39 51°13.711 2°55.773 15.902641 3.921554 31.452735 37.950853
2004-05-27 13:36:38 51°13.646 2°55.917 15.958685 3.922819 31.454354 38.15311
2004-05-27 13:37:38 51°13.609 2°56.038 16.021154 3.9244 31.459402 38.355366
2004-05-27 13:38:38 51°13.597 2°56.096 16.155289 3.925875 31.461693 38.490204
2004-05-27 13:39:39 51°13.596 2°56.094 16.272298 3.927562 31.466469 38.625042
2004-05-27 13:40:37 51°13.597 2°56.098 16.346467 3.929143 31.470303 38.793589
2004-05-27 13:41:37 51°13.596 2°56.095 16.39307 3.930829 31.474472 38.928426